Astana, Kazakhstan
Current Conditions -  °F | °C
As of 7:30 PM on Wednesday 22 Oct 2014 (Local Time) from UACC Reporting Station
Clear Clear  
Wind Chill: 25°   Ceiling: Unl
Heat Index: 34°   Visibility: 6mi
Dew Point: 30°   Wind: 11mph
Humidity: 87%   Direction: 190°S
Pressure: 29.94"   Gusts: NA
Location:  51.17°N, 71.5°E
Report Text: UACC 221330Z 19005MPS CAVOK 01/M01 Q1014 R22/0/0070 NOSIG RMKQFE729/0973
Loading
Personal Weather Stations






























Interactive Weather Map
Tropical Storm Tracking
New forecast layout! Learn more

10-Day Weather Forecast

Advertisements
Track Severe Weather on mobile